createdAt,value
2023-02-11T00:01:12.804Z,38.37
2023-02-11T00:03:39.397Z,37.83
2023-02-11T00:06:05.827Z,38.14
2023-02-11T00:08:32.470Z,38.11
2023-02-11T00:10:59.402Z,38.10
2023-02-11T00:13:26.044Z,37.87
2023-02-11T00:15:52.620Z,38.47
2023-02-11T00:18:19.126Z,38.13
2023-02-11T00:20:45.552Z,38.09
2023-02-11T00:23:11.975Z,38.50
2023-02-11T00:25:38.366Z,37.66
2023-02-11T00:28:04.952Z,37.37
2023-02-11T00:30:31.459Z,37.75
2023-02-11T00:32:57.851Z,38.42
2023-02-11T00:35:24.331Z,38.08
2023-02-11T00:37:51.349Z,37.93
2023-02-11T00:40:17.819Z,38.15
2023-02-11T00:42:44.384Z,37.40
2023-02-11T00:45:10.857Z,37.59
2023-02-11T00:47:37.303Z,37.85
2023-02-11T00:50:03.706Z,37.43
2023-02-11T00:52:30.311Z,37.50
2023-02-11T00:54:56.878Z,37.44
2023-02-11T00:57:25.350Z,37.81
2023-02-11T00:59:51.748Z,37.99
2023-02-11T01:02:18.486Z,37.90
2023-02-11T01:04:44.951Z,37.68
2023-02-11T01:07:11.496Z,37.90
2023-02-11T01:09:40.255Z,37.69
2023-02-11T01:12:06.839Z,37.72
2023-02-11T01:14:33.286Z,38.16
2023-02-11T01:16:59.641Z,38.02
2023-02-11T01:19:26.200Z,38.25
2023-02-11T01:21:52.751Z,37.81
2023-02-11T01:24:19.313Z,38.31
2023-02-11T01:26:45.740Z,38.07
2023-02-11T01:29:12.409Z,37.94
2023-02-11T01:31:41.060Z,38.53
2023-02-11T01:34:07.918Z,38.31
2023-02-11T01:36:34.389Z,38.61
2023-02-11T01:39:01.108Z,38.54
2023-02-11T01:41:27.706Z,38.57
2023-02-11T01:43:54.182Z,38.30
2023-02-11T01:46:22.888Z,38.44
2023-02-11T01:48:49.394Z,38.85
2023-02-11T01:51:15.789Z,38.50
2023-02-11T01:53:42.228Z,38.58
2023-02-11T01:56:08.768Z,39.07
2023-02-11T01:58:35.216Z,39.10
2023-02-11T02:01:01.720Z,39.46
2023-02-11T02:03:28.227Z,38.83
2023-02-11T02:05:54.903Z,39.20
2023-02-11T02:08:21.476Z,39.50
2023-02-11T02:10:48.022Z,39.56
2023-02-11T02:13:14.457Z,40.37
2023-02-11T02:15:40.959Z,40.34
2023-02-11T02:18:07.661Z,39.79
2023-02-11T02:20:34.110Z,40.79
2023-02-11T02:23:01.009Z,40.32
2023-02-11T02:25:27.495Z,40.30
2023-02-11T02:27:53.929Z,40.04
2023-02-11T02:30:20.431Z,40.70
2023-02-11T02:32:46.912Z,41.63
2023-02-11T02:35:13.320Z,41.56
2023-02-11T02:37:40.832Z,40.96
2023-02-11T02:40:07.251Z,41.43
2023-02-11T02:42:33.748Z,40.89
2023-02-11T02:45:00.221Z,40.53
2023-02-11T02:47:26.826Z,40.57
2023-02-11T02:49:53.239Z,40.95
2023-02-11T02:52:19.955Z,40.87
2023-02-11T02:54:46.379Z,42.00
2023-02-11T02:57:12.877Z,42.52
2023-02-11T02:59:39.385Z,42.04
2023-02-11T03:02:05.900Z,41.72
2023-02-11T03:04:32.450Z,41.71
2023-02-11T03:06:58.888Z,41.94
2023-02-11T03:09:25.473Z,41.63
2023-02-11T03:11:51.816Z,41.68
2023-02-11T03:14:18.323Z,42.80
2023-02-11T03:16:44.929Z,42.16
2023-02-11T03:19:11.298Z,42.67
2023-02-11T03:21:37.957Z,41.95
2023-02-11T03:24:04.598Z,41.38
2023-02-11T03:26:31.217Z,42.44
2023-02-11T03:28:57.610Z,42.28
2023-02-11T03:31:24.356Z,41.61
2023-02-11T03:33:50.906Z,41.07
2023-02-11T03:36:17.318Z,42.45
2023-02-11T03:38:43.714Z,42.83
2023-02-11T03:41:10.167Z,42.28
2023-02-11T03:43:36.560Z,42.87
2023-02-11T03:46:03.070Z,43.47
2023-02-11T03:48:29.817Z,42.88
2023-02-11T03:50:56.267Z,43.19
2023-02-11T03:53:22.697Z,42.40
2023-02-11T03:55:49.892Z,43.32
2023-02-11T03:58:16.545Z,43.15
2023-02-11T04:00:42.946Z,43.00
2023-02-11T04:03:09.573Z,43.06
2023-02-11T04:05:36.238Z,42.79
2023-02-11T04:08:02.665Z,44.37
2023-02-11T04:10:31.071Z,44.39
2023-02-11T04:12:57.762Z,43.74
2023-02-11T04:15:24.165Z,43.04
2023-02-11T04:17:50.628Z,43.80
2023-02-11T04:20:18.773Z,43.75
2023-02-11T04:22:45.137Z,43.15
2023-02-11T04:25:11.821Z,43.46
2023-02-11T04:27:38.289Z,44.28
2023-02-11T04:30:04.957Z,43.63
2023-02-11T04:32:32.509Z,43.74
2023-02-11T04:34:59.047Z,43.42
2023-02-11T04:37:25.627Z,43.38
2023-02-11T04:39:52.435Z,42.75
2023-02-11T04:42:19.200Z,43.49
2023-02-11T04:44:47.686Z,43.57
2023-02-11T04:47:14.518Z,43.25
2023-02-11T04:49:41.025Z,43.59
2023-02-11T04:52:07.388Z,43.02
2023-02-11T04:54:33.964Z,43.28
2023-02-11T04:57:00.800Z,42.86
2023-02-11T04:59:27.332Z,43.11
2023-02-11T05:01:54.238Z,43.01
2023-02-11T05:04:20.769Z,43.74
2023-02-11T05:06:47.448Z,44.45
2023-02-11T05:09:13.917Z,44.16
2023-02-11T05:11:40.440Z,44.44
2023-02-11T05:14:07.008Z,43.58
2023-02-11T05:16:33.557Z,42.80
2023-02-11T05:19:00.005Z,42.96
2023-02-11T05:21:26.458Z,42.45
2023-02-11T05:23:52.842Z,42.30
2023-02-11T05:26:19.310Z,42.45
2023-02-11T05:28:45.708Z,42.23
2023-02-11T05:31:12.217Z,42.21
2023-02-11T05:33:38.703Z,43.31
2023-02-11T05:36:05.135Z,42.56
2023-02-11T05:38:31.536Z,42.02
2023-02-11T05:40:58.038Z,42.42
2023-02-11T05:43:24.484Z,42.81
2023-02-11T05:45:52.298Z,42.93
2023-02-11T05:48:19.358Z,42.34
2023-02-11T05:50:45.871Z,42.87
2023-02-11T05:53:12.478Z,43.24
2023-02-11T05:55:39.177Z,43.64
2023-02-11T05:58:05.686Z,43.76
2023-02-11T06:00:32.052Z,44.67
2023-02-11T06:02:58.906Z,44.61
2023-02-11T06:05:25.498Z,44.05
2023-02-11T06:07:51.955Z,44.24
2023-02-11T06:10:18.383Z,43.87
2023-02-11T06:12:44.867Z,44.13
2023-02-11T06:15:11.351Z,43.57
2023-02-11T06:17:37.905Z,43.49
2023-02-11T06:20:04.362Z,43.11
2023-02-11T06:22:30.781Z,43.64
2023-02-11T06:25:01.792Z,42.62
2023-02-11T06:27:28.899Z,43.03
2023-02-11T06:29:55.357Z,43.40
2023-02-11T06:32:42.248Z,42.43
2023-02-11T06:35:11.766Z,43.46
2023-02-11T06:37:38.699Z,43.77
2023-02-11T06:40:05.418Z,43.30
2023-02-11T06:42:31.874Z,43.98
2023-02-11T06:44:58.449Z,43.75
2023-02-11T06:47:25.037Z,44.10
2023-02-11T06:49:51.478Z,44.39
2023-02-11T06:52:17.910Z,44.31
2023-02-11T06:54:44.879Z,43.90
2023-02-11T06:57:11.345Z,44.04
2023-02-11T06:59:37.909Z,43.69
2023-02-11T07:02:04.550Z,42.60
2023-02-11T07:04:31.142Z,42.41
2023-02-11T07:06:58.590Z,41.92
2023-02-11T07:09:25.481Z,41.51
2023-02-11T07:11:52.058Z,41.49
2023-02-11T07:14:18.878Z,41.08
2023-02-11T07:16:45.470Z,40.49
2023-02-11T07:19:11.917Z,41.42
2023-02-11T07:21:38.313Z,41.05
2023-02-11T07:24:04.942Z,40.85
2023-02-11T07:26:31.396Z,41.45
2023-02-11T07:28:57.917Z,40.52
2023-02-11T07:31:24.515Z,40.21
2023-02-11T07:33:51.139Z,40.00
2023-02-11T07:36:19.605Z,40.59
2023-02-11T07:38:46.038Z,40.70
2023-02-11T07:41:12.713Z,40.44
2023-02-11T07:43:39.306Z,39.69
2023-02-11T07:46:05.710Z,39.78
2023-02-11T07:48:32.399Z,39.73
2023-02-11T07:50:58.801Z,39.28
2023-02-11T07:53:25.748Z,39.04
2023-02-11T07:55:52.362Z,39.69
2023-02-11T07:58:18.968Z,39.12
2023-02-11T08:00:45.485Z,39.63
2023-02-11T08:03:12.892Z,39.61
2023-02-11T08:05:39.611Z,39.87
2023-02-11T08:08:06.041Z,39.20
2023-02-11T08:10:32.734Z,39.28
2023-02-11T08:12:59.244Z,38.92
2023-02-11T08:15:26.067Z,39.91
2023-02-11T08:17:52.596Z,39.57
2023-02-11T08:20:22.934Z,39.15
2023-02-11T08:22:49.330Z,39.59
2023-02-11T08:25:15.714Z,39.15
2023-02-11T08:27:42.402Z,38.47
2023-02-11T08:30:08.961Z,38.55
2023-02-11T08:32:35.526Z,38.20
2023-02-11T08:35:02.401Z,38.84
2023-02-11T08:37:31.372Z,38.65
2023-02-11T08:39:59.162Z,38.39
2023-02-11T08:42:26.359Z,38.66
2023-02-11T08:44:52.845Z,38.46
2023-02-11T08:47:22.211Z,38.33
2023-02-11T08:49:48.686Z,38.17
2023-02-11T08:52:15.142Z,38.87
2023-02-11T08:54:41.847Z,37.87
2023-02-11T08:57:08.293Z,38.01
2023-02-11T08:59:34.682Z,37.46
2023-02-11T09:02:01.659Z,36.96
2023-02-11T09:04:28.253Z,37.24
2023-02-11T09:06:54.653Z,37.81
2023-02-11T09:09:21.051Z,38.85
2023-02-11T09:11:47.472Z,38.15
2023-02-11T09:14:13.914Z,38.75
2023-02-11T09:16:40.469Z,38.60
2023-02-11T09:19:09.947Z,38.12
2023-02-11T09:21:36.587Z,37.38
2023-02-11T09:24:03.002Z,38.60
2023-02-11T09:26:29.412Z,38.05
2023-02-11T09:28:56.132Z,37.88
2023-02-11T09:31:23.011Z,37.80
2023-02-11T09:33:49.798Z,37.86
2023-02-11T09:36:16.206Z,38.25
2023-02-11T09:38:43.046Z,38.45
2023-02-11T09:41:09.767Z,38.58
2023-02-11T09:43:36.254Z,38.15
2023-02-11T09:46:02.684Z,38.93
2023-02-11T09:48:29.267Z,38.28
2023-02-11T09:50:55.735Z,38.90
2023-02-11T09:53:22.106Z,38.87
2023-02-11T09:55:48.602Z,39.05
2023-02-11T09:58:15.557Z,39.53
2023-02-11T10:00:42.087Z,38.98
2023-02-11T10:03:08.752Z,38.61
2023-02-11T10:05:35.294Z,38.62
2023-02-11T10:08:01.933Z,38.13
2023-02-11T10:10:28.920Z,37.99
2023-02-11T10:12:55.667Z,38.77
2023-02-11T10:15:22.402Z,39.12
2023-02-11T10:17:48.799Z,39.31
2023-02-11T10:20:17.041Z,39.43
2023-02-11T10:22:43.827Z,38.70
2023-02-11T10:25:10.283Z,38.19
2023-02-11T10:27:41.395Z,38.17
2023-02-11T10:30:08.818Z,38.41
2023-02-11T10:32:35.572Z,37.91
2023-02-11T10:35:03.127Z,38.22
2023-02-11T10:37:29.585Z,37.78
2023-02-11T10:39:56.067Z,37.97
2023-02-11T10:42:22.494Z,38.66
2023-02-11T10:44:48.927Z,38.06
2023-02-11T10:47:15.634Z,37.75
2023-02-11T10:49:42.046Z,37.93
2023-02-11T10:52:08.442Z,38.51
2023-02-11T10:54:38.424Z,38.34
2023-02-11T10:57:04.850Z,38.05
2023-02-11T10:59:31.493Z,38.36
2023-02-11T11:01:58.502Z,37.53
2023-02-11T11:04:25.064Z,37.76
2023-02-11T11:06:52.553Z,38.60
2023-02-11T11:09:19.562Z,37.80
2023-02-11T11:11:45.946Z,37.57
2023-02-11T11:14:12.504Z,37.29
2023-02-11T11:16:39.116Z,36.72
2023-02-11T11:19:05.688Z,37.27
2023-02-11T11:21:32.150Z,37.63
2023-02-11T11:23:59.980Z,37.62
2023-02-11T11:26:26.517Z,37.14
2023-02-11T11:28:53.996Z,37.26
2023-02-11T11:31:21.210Z,37.10
2023-02-11T11:33:47.757Z,36.69
2023-02-11T11:36:14.641Z,35.73
2023-02-11T11:38:41.124Z,36.69
2023-02-11T11:41:08.506Z,35.97
2023-02-11T11:43:34.931Z,39.16
2023-02-11T11:46:01.672Z,35.60
2023-02-11T11:48:28.197Z,35.35
2023-02-11T11:50:55.108Z,34.76
2023-02-11T11:53:21.518Z,35.08
2023-02-11T11:55:48.525Z,35.06
2023-02-11T11:58:15.053Z,35.33
2023-02-11T12:00:41.468Z,35.06
2023-02-11T12:03:08.054Z,34.37
2023-02-11T12:05:34.697Z,35.40
2023-02-11T12:08:01.418Z,35.19
2023-02-11T12:10:28.178Z,34.90
2023-02-11T12:12:54.619Z,36.51
2023-02-11T12:15:21.092Z,35.81
2023-02-11T12:17:47.591Z,36.57
2023-02-11T12:20:16.307Z,37.20
2023-02-11T12:22:42.979Z,37.42
2023-02-11T12:25:09.786Z,37.01
2023-02-11T12:27:37.378Z,37.04
2023-02-11T12:30:03.869Z,37.01
2023-02-11T12:32:30.387Z,37.12
2023-02-11T12:34:56.907Z,35.77
2023-02-11T12:37:24.627Z,35.78
2023-02-11T12:39:51.239Z,35.91
2023-02-11T12:42:17.713Z,35.46
2023-02-11T12:44:44.203Z,35.31
2023-02-11T12:47:11.039Z,35.16
2023-02-11T12:49:37.776Z,34.49
2023-02-11T12:52:06.500Z,34.22
2023-02-11T12:54:33.354Z,34.71
2023-02-11T12:57:00.391Z,34.16
2023-02-11T12:59:26.878Z,33.34
2023-02-11T13:01:54.466Z,33.82
2023-02-11T13:04:21.246Z,34.19
2023-02-11T13:06:47.899Z,33.80
2023-02-11T13:09:14.682Z,33.18
2023-02-11T13:11:41.239Z,33.08
2023-02-11T13:14:08.828Z,33.17
2023-02-11T13:16:35.855Z,34.16
2023-02-11T13:19:02.971Z,33.66
2023-02-11T13:21:30.597Z,34.49
2023-02-11T13:23:57.157Z,34.24
2023-02-11T13:26:23.599Z,35.53
2023-02-11T13:28:49.972Z,35.79
2023-02-11T13:31:17.020Z,35.82
2023-02-11T13:33:43.696Z,36.00
2023-02-11T13:36:15.053Z,36.74
2023-02-11T13:38:41.512Z,36.27
2023-02-11T13:41:07.938Z,36.72
2023-02-11T13:43:35.487Z,36.75
2023-02-11T13:46:03.679Z,36.65
2023-02-11T13:48:31.670Z,37.02
2023-02-11T13:50:58.070Z,36.54
2023-02-11T13:53:24.479Z,36.06
2023-02-11T13:55:51.315Z,36.97
2023-02-11T13:58:17.964Z,36.42
2023-02-11T14:00:44.814Z,36.69
2023-02-11T14:03:13.508Z,37.10
2023-02-11T14:05:41.367Z,36.91
2023-02-11T14:08:09.191Z,36.52
2023-02-11T14:10:38.968Z,35.78
2023-02-11T14:13:05.824Z,36.01
2023-02-11T14:15:32.755Z,36.84
2023-02-11T14:18:01.558Z,37.59
2023-02-11T14:20:27.966Z,36.72
2023-02-11T14:22:54.530Z,37.38
2023-02-11T14:25:21.023Z,37.88
2023-02-11T14:27:47.494Z,37.67
2023-02-11T14:30:14.741Z,37.64
2023-02-11T14:32:41.631Z,37.85
2023-02-11T14:35:08.587Z,37.60
2023-02-11T14:37:35.067Z,37.96
2023-02-11T14:40:03.955Z,37.71
2023-02-11T14:42:31.016Z,37.66
2023-02-11T14:44:58.870Z,38.99
2023-02-11T14:47:26.306Z,37.87
2023-02-11T14:49:53.680Z,38.26
2023-02-11T14:52:20.632Z,37.78
2023-02-11T14:54:47.805Z,38.16
2023-02-11T14:57:14.679Z,38.25
2023-02-11T14:59:43.907Z,37.80
2023-02-11T15:02:10.613Z,38.22
2023-02-11T15:04:37.107Z,38.43
2023-02-11T15:07:05.473Z,38.41
2023-02-11T15:09:32.495Z,39.08
2023-02-11T15:12:00.179Z,38.06
2023-02-11T15:14:26.798Z,38.17
2023-02-11T15:16:54.084Z,38.23
2023-02-11T15:19:21.107Z,38.53
2023-02-11T15:21:49.052Z,38.78
2023-02-11T15:24:15.600Z,38.73
2023-02-11T15:26:42.285Z,39.13
2023-02-11T15:29:09.071Z,40.03
2023-02-11T15:31:36.437Z,39.97
2023-02-11T15:34:04.282Z,39.91
2023-02-11T15:36:32.250Z,39.72
2023-02-11T15:38:59.736Z,39.67
2023-02-11T15:41:26.802Z,39.18
2023-02-11T15:43:53.588Z,39.49
2023-02-11T15:46:22.297Z,39.35
2023-02-11T15:48:49.178Z,39.05
2023-02-11T15:51:16.588Z,39.40
2023-02-11T15:53:43.728Z,40.04
2023-02-11T15:56:10.246Z,40.11
2023-02-11T15:58:37.695Z,40.97
2023-02-11T16:01:04.652Z,40.60
2023-02-11T16:03:31.212Z,41.43
2023-02-11T16:06:02.156Z,41.18
2023-02-11T16:08:29.005Z,40.81
2023-02-11T16:10:55.995Z,41.55
2023-02-11T16:13:22.933Z,41.57
2023-02-11T16:15:49.821Z,41.38
2023-02-11T16:18:16.773Z,42.20
2023-02-11T16:20:44.267Z,41.43
2023-02-11T16:23:11.675Z,41.96
2023-02-11T16:25:41.295Z,42.17
2023-02-11T16:28:08.431Z,40.84
2023-02-11T16:30:35.040Z,40.88
2023-02-11T16:33:02.072Z,40.56
2023-02-11T16:35:29.590Z,40.00
2023-02-11T16:37:59.703Z,40.03
2023-02-11T16:40:27.762Z,40.58
2023-02-11T16:42:54.980Z,40.17
2023-02-11T16:45:22.896Z,40.58
2023-02-11T16:47:49.850Z,41.06
2023-02-11T16:50:17.445Z,42.42
2023-02-11T16:52:44.550Z,43.30
2023-02-11T16:55:11.545Z,42.91
2023-02-11T16:57:38.348Z,43.45
2023-02-11T17:00:05.272Z,42.44
2023-02-11T17:02:32.137Z,42.67
2023-02-11T17:04:59.056Z,41.53
2023-02-11T17:07:25.975Z,42.25
2023-02-11T17:09:52.492Z,42.81
2023-02-11T17:12:18.929Z,43.28
2023-02-11T17:14:46.182Z,43.01
2023-02-11T17:17:13.024Z,43.78
2023-02-11T17:19:40.869Z,43.15
2023-02-11T17:22:07.348Z,41.92
2023-02-11T17:24:35.616Z,42.28
2023-02-11T17:27:02.175Z,42.25
2023-02-11T17:29:29.609Z,42.35
2023-02-11T17:31:56.831Z,42.92
2023-02-11T17:34:23.914Z,42.01
2023-02-11T17:36:51.915Z,41.58
2023-02-11T17:39:18.846Z,41.20
2023-02-11T17:41:45.985Z,41.15
2023-02-11T17:44:13.654Z,41.54
2023-02-11T17:46:42.416Z,42.19
2023-02-11T17:49:09.398Z,42.04
2023-02-11T17:51:36.244Z,40.94
2023-02-11T17:54:03.413Z,41.72
2023-02-11T17:56:34.627Z,41.05
2023-02-11T17:59:01.520Z,40.25
2023-02-11T18:01:28.630Z,40.57
2023-02-11T18:03:55.775Z,40.69
2023-02-11T18:06:22.585Z,40.44
2023-02-11T18:08:49.466Z,40.32
2023-02-11T18:11:16.384Z,41.83
2023-02-11T18:13:43.626Z,41.42
2023-02-11T18:16:10.513Z,40.85
2023-02-11T18:18:37.487Z,40.86
2023-02-11T18:21:04.008Z,41.51
2023-02-11T18:23:31.863Z,41.63
2023-02-11T18:25:58.883Z,40.97
2023-02-11T18:28:26.111Z,40.96
2023-02-11T18:30:53.078Z,41.07
2023-02-11T18:33:21.238Z,40.49
2023-02-11T18:35:47.904Z,41.13
2023-02-11T18:38:15.016Z,40.42
2023-02-11T18:40:42.216Z,40.44
2023-02-11T18:43:09.137Z,40.74
2023-02-11T18:45:36.527Z,40.21
2023-02-11T18:48:03.524Z,40.33
2023-02-11T18:50:30.886Z,39.84
2023-02-11T18:52:58.882Z,40.50
2023-02-11T18:55:26.017Z,40.12
2023-02-11T18:57:53.062Z,39.92
2023-02-11T19:00:19.590Z,40.16
2023-02-11T19:02:46.474Z,40.40
2023-02-11T19:05:13.852Z,40.87
2023-02-11T19:07:40.392Z,42.09
2023-02-11T19:10:07.375Z,41.30
2023-02-11T19:12:35.808Z,40.88
2023-02-11T19:15:02.753Z,40.62
2023-02-11T19:17:30.542Z,40.24
2023-02-11T19:19:58.306Z,40.71
2023-02-11T19:22:24.818Z,42.46
2023-02-11T19:24:51.280Z,42.34
2023-02-11T19:27:18.285Z,41.69
2023-02-11T19:29:50.254Z,41.35
2023-02-11T19:32:17.251Z,41.53
2023-02-11T19:34:45.228Z,41.58
2023-02-11T19:37:11.847Z,41.63
2023-02-11T19:39:38.761Z,41.27
2023-02-11T19:42:06.075Z,41.42
2023-02-11T19:44:36.367Z,42.47
2023-02-11T19:47:03.879Z,42.50
2023-02-11T19:49:31.001Z,42.71
2023-02-11T19:51:59.076Z,42.27
2023-02-11T19:54:25.666Z,42.35
2023-02-11T19:56:55.457Z,42.50
2023-02-11T19:59:21.984Z,42.73
2023-02-11T20:01:49.072Z,42.53
2023-02-11T20:04:15.891Z,42.57
2023-02-11T20:06:43.017Z,42.82
2023-02-11T20:09:10.943Z,43.01
2023-02-11T20:11:37.910Z,43.54
2023-02-11T20:14:05.314Z,43.74
2023-02-11T20:16:46.882Z,43.72
2023-02-11T20:19:14.880Z,43.39
2023-02-11T20:21:42.614Z,43.96
2023-02-11T20:24:10.563Z,43.09
2023-02-11T20:26:37.651Z,43.80
2023-02-11T20:29:06.347Z,43.87
2023-02-11T20:31:33.159Z,43.28
2023-02-11T20:34:00.150Z,43.94
2023-02-11T20:36:27.346Z,43.95
2023-02-11T20:38:54.283Z,43.65
2023-02-11T20:41:21.198Z,43.12
2023-02-11T20:43:47.720Z,44.19
2023-02-11T20:46:15.665Z,43.79
2023-02-11T20:48:44.854Z,44.10
2023-02-11T20:51:12.129Z,44.32
2023-02-11T20:53:39.164Z,44.38
2023-02-11T20:56:06.089Z,43.91
2023-02-11T20:58:32.572Z,44.10
2023-02-11T21:01:00.156Z,44.10
2023-02-11T21:03:27.108Z,44.75
2023-02-11T21:05:54.851Z,43.94
2023-02-11T21:08:23.778Z,44.52
2023-02-11T21:10:50.675Z,44.80
2023-02-11T21:13:18.675Z,45.01
2023-02-11T21:15:45.945Z,46.44
2023-02-11T21:18:13.229Z,45.39
2023-02-11T21:20:40.798Z,45.86
2023-02-11T21:23:09.993Z,46.05
2023-02-11T21:25:37.209Z,45.31
2023-02-11T21:28:03.861Z,44.83
2023-02-11T21:30:30.885Z,44.97
2023-02-11T21:32:57.940Z,46.21
2023-02-11T21:35:24.463Z,45.75
2023-02-11T21:37:51.222Z,46.95
2023-02-11T21:40:17.967Z,46.20
2023-02-11T21:42:45.025Z,47.74
2023-02-11T21:45:11.929Z,46.86
2023-02-11T21:47:39.158Z,46.28
2023-02-11T21:50:06.670Z,46.76
2023-02-11T21:52:33.774Z,47.00
2023-02-11T21:55:00.808Z,47.15
2023-02-11T21:57:27.814Z,45.79
2023-02-11T21:59:54.332Z,45.12
2023-02-11T22:02:20.881Z,46.03
2023-02-11T22:04:47.728Z,46.15
2023-02-11T22:07:14.549Z,46.02
2023-02-11T22:09:40.932Z,46.24
2023-02-11T22:12:07.587Z,46.35
2023-02-11T22:14:34.033Z,46.42
2023-02-11T22:17:00.476Z,46.80
2023-02-11T22:19:27.597Z,46.86
2023-02-11T22:21:54.053Z,47.96
2023-02-11T22:24:21.396Z,47.71
2023-02-11T22:26:47.834Z,47.43
2023-02-11T22:29:14.384Z,48.44
2023-02-11T22:31:40.866Z,48.35
2023-02-11T22:34:07.558Z,47.29
2023-02-11T22:36:34.569Z,47.07
2023-02-11T22:39:01.050Z,48.41
2023-02-11T22:41:27.431Z,48.00
2023-02-11T22:43:53.925Z,48.30
2023-02-11T22:46:20.572Z,48.24
2023-02-11T22:48:47.203Z,48.28
2023-02-11T22:51:13.734Z,48.83
2023-02-11T22:53:40.186Z,49.60
2023-02-11T22:56:07.166Z,49.12
2023-02-11T22:58:33.713Z,48.92
2023-02-11T23:01:00.273Z,48.01
2023-02-11T23:03:26.867Z,48.43
2023-02-11T23:05:53.740Z,48.98
2023-02-11T23:08:20.296Z,49.09
2023-02-11T23:10:46.685Z,49.02
2023-02-11T23:13:13.083Z,49.55
2023-02-11T23:15:39.688Z,49.38
2023-02-11T23:18:06.621Z,49.60
2023-02-11T23:20:33.435Z,49.28
2023-02-11T23:22:59.867Z,49.47
2023-02-11T23:25:26.337Z,50.76
2023-02-11T23:27:52.843Z,49.33
2023-02-11T23:30:19.539Z,48.95
2023-02-11T23:32:45.979Z,50.27
2023-02-11T23:35:12.380Z,49.08
2023-02-11T23:37:39.068Z,50.77
2023-02-11T23:40:07.513Z,49.22
2023-02-11T23:42:34.136Z,49.16
2023-02-11T23:45:00.779Z,48.67
2023-02-11T23:47:27.144Z,49.81
2023-02-11T23:49:55.213Z,50.98
2023-02-11T23:52:21.653Z,49.89
2023-02-11T23:54:48.216Z,49.19
2023-02-11T23:57:14.718Z,49.62
2023-02-11T23:59:43.169Z,49.06
